Terminal Aerodrome Forecast
Issued by NWS Missoula, MT

Home | Current Version | Previous Version | Text Only | Print | Product List | Glossary On
Versions: 1 2 3 4 5 6 7 8 9 10 11 12 13 14 15 16
000
FTUS45 KMSO 231720
TAFGPI
TAF
KGPI 231720Z 2318/2418 13006KT P6SM SCT080
     FM232000 07005KT P6SM SCT080 BKN120
     FM232200 01006KT P6SM VCSH BKN080 BKN120
     FM240700 03009KT P6SM SCT060 BKN080=

USA.gov is the U.S. government's official web portal to all federal, state and local government web resources and services.